createdAt,value
2023-03-22T00:01:42.214Z,12.98
2023-03-22T00:04:09.731Z,12.92
2023-03-22T00:06:46.389Z,12.68
2023-03-22T00:09:24.539Z,12.85
2023-03-22T00:11:51.384Z,12.99
2023-03-22T00:14:30.071Z,12.97
2023-03-22T00:17:10.608Z,12.98
2023-03-22T00:19:44.723Z,12.60
2023-03-22T00:22:35.201Z,12.33
2023-03-22T00:25:02.254Z,12.53
2023-03-22T00:27:29.116Z,12.81
2023-03-22T00:29:58.492Z,12.51
2023-03-22T00:32:28.106Z,12.90
2023-03-22T00:34:54.924Z,13.01
2023-03-22T00:37:24.597Z,12.28
2023-03-22T00:39:53.066Z,13.16
2023-03-22T00:42:22.698Z,13.04
2023-03-22T00:44:52.179Z,13.08
2023-03-22T00:47:29.900Z,12.81
2023-03-22T00:50:06.008Z,11.95
2023-03-22T00:52:35.647Z,12.76
2023-03-22T00:55:10.005Z,12.94
2023-03-22T00:57:38.600Z,12.82
2023-03-22T01:00:24.796Z,12.72
2023-03-22T01:02:59.751Z,12.75
2023-03-22T01:05:35.873Z,12.67
2023-03-22T01:08:10.807Z,12.52
2023-03-22T01:10:45.092Z,12.65
2023-03-22T01:13:16.947Z,12.65
2023-03-22T01:16:00.922Z,12.71
2023-03-22T01:18:36.698Z,12.66
2023-03-22T01:21:08.937Z,12.46
2023-03-22T01:23:37.475Z,12.78
2023-03-22T01:26:12.661Z,12.83
2023-03-22T01:28:40.933Z,12.84
2023-03-22T01:31:27.652Z,12.53
2023-03-22T01:33:55.588Z,12.80
2023-03-22T01:36:23.383Z,12.78
2023-03-22T01:39:04.301Z,12.74
2023-03-22T01:41:37.550Z,12.59
2023-03-22T01:44:20.977Z,12.91
2023-03-22T01:46:57.147Z,12.70
2023-03-22T01:49:26.707Z,12.91
2023-03-22T01:51:58.080Z,12.35
2023-03-22T01:54:41.025Z,12.75
2023-03-22T01:57:16.270Z,12.67
2023-03-22T01:59:45.105Z,12.63
2023-03-22T02:02:20.744Z,12.60
2023-03-22T02:04:51.011Z,12.55
2023-03-22T02:07:26.077Z,11.82
2023-03-22T02:09:56.012Z,12.40
2023-03-22T02:13:12.538Z,11.75
2023-03-22T02:15:48.946Z,12.44
2023-03-22T02:18:41.429Z,12.59
2023-03-22T02:21:45.503Z,12.57
2023-03-22T02:24:51.162Z,12.66
2023-03-22T02:27:23.970Z,12.58
2023-03-22T02:30:05.250Z,12.11
2023-03-22T02:32:39.219Z,12.39
2023-03-22T02:35:33.817Z,12.36
2023-03-22T02:38:30.202Z,12.40
2023-03-22T02:41:14.885Z,12.00
2023-03-22T02:43:47.639Z,11.39
2023-03-22T02:46:32.782Z,12.05
2023-03-22T02:49:14.716Z,12.07
2023-03-22T02:51:55.528Z,12.14
2023-03-22T02:54:38.477Z,12.14
2023-03-22T02:57:13.100Z,12.34
2023-03-22T02:59:43.823Z,12.28
2023-03-22T03:02:14.358Z,12.31
2023-03-22T03:04:49.956Z,12.43
2023-03-22T03:07:29.080Z,12.43
2023-03-22T03:10:01.341Z,12.51
2023-03-22T03:12:32.736Z,12.00
2023-03-22T03:14:59.439Z,12.39
2023-03-22T03:18:27.724Z,12.43
2023-03-22T03:21:15.047Z,12.45
2023-03-22T03:24:04.027Z,12.02
2023-03-22T03:27:00.230Z,12.24
2023-03-22T03:29:41.629Z,12.34
2023-03-22T03:32:25.640Z,12.28
2023-03-22T03:35:02.390Z,12.24
2023-03-22T03:37:44.991Z,12.30
2023-03-22T03:40:37.595Z,12.29
2023-03-22T03:45:55.421Z,12.22
2023-03-22T03:48:31.897Z,11.86
2023-03-22T03:51:00.640Z,12.18
2023-03-22T03:53:28.088Z,12.11
2023-03-22T03:55:58.031Z,12.15
2023-03-22T03:58:24.616Z,12.38
2023-03-22T04:00:51.700Z,12.06
2023-03-22T04:03:18.526Z,12.27
2023-03-22T04:05:46.292Z,11.64
2023-03-22T04:08:14.233Z,12.14
2023-03-22T04:10:41.150Z,12.17
2023-03-22T04:13:13.855Z,12.11
2023-03-22T04:15:43.672Z,12.09
2023-03-22T04:18:13.470Z,12.10
2023-03-22T04:20:42.090Z,12.11
2023-03-22T04:23:20.924Z,12.13
2023-03-22T04:25:50.633Z,11.84
2023-03-22T04:28:25.599Z,11.98
2023-03-22T04:30:52.827Z,11.89
2023-03-22T04:33:23.338Z,12.17
2023-03-22T04:35:57.495Z,12.02
2023-03-22T04:38:25.457Z,12.19
2023-03-22T04:40:58.548Z,12.19
2023-03-22T04:43:28.337Z,12.27
2023-03-22T04:46:01.835Z,12.37
2023-03-22T04:48:29.697Z,12.31
2023-03-22T04:50:58.010Z,12.07
2023-03-22T04:53:29.843Z,11.93
2023-03-22T04:55:57.356Z,12.09
2023-03-22T04:58:25.457Z,12.25
2023-03-22T05:01:04.671Z,12.15
2023-03-22T05:03:34.603Z,12.01
2023-03-22T05:06:04.959Z,12.09
2023-03-22T05:08:34.755Z,12.25
2023-03-22T05:11:19.261Z,11.66
2023-03-22T05:13:47.246Z,12.18
2023-03-22T05:16:17.088Z,11.83
2023-03-22T05:18:47.906Z,12.19
2023-03-22T05:21:25.593Z,11.77
2023-03-22T05:23:56.614Z,12.09
2023-03-22T05:26:26.959Z,11.20
2023-03-22T05:28:57.835Z,12.04
2023-03-22T05:31:28.781Z,11.89
2023-03-22T05:33:58.828Z,11.12
2023-03-22T05:36:45.047Z,11.69
2023-03-22T05:39:17.831Z,11.91
2023-03-22T05:41:56.545Z,12.00
2023-03-22T05:44:26.346Z,12.17
2023-03-22T05:46:53.079Z,12.17
2023-03-22T05:49:22.079Z,12.05
2023-03-22T05:51:48.784Z,12.27
2023-03-22T05:54:16.358Z,11.98
2023-03-22T05:56:54.011Z,11.93
2023-03-22T05:59:22.760Z,11.96
2023-03-22T06:01:49.550Z,11.54
2023-03-22T06:04:16.261Z,11.31
2023-03-22T06:06:45.497Z,11.57
2023-03-22T06:09:17.212Z,12.04
2023-03-22T06:11:44.715Z,12.25
2023-03-22T06:14:12.659Z,11.51
2023-03-22T06:16:39.609Z,12.31
2023-03-22T06:19:14.425Z,12.16
2023-03-22T06:21:41.035Z,12.40
2023-03-22T06:24:10.843Z,12.25
2023-03-22T06:26:41.584Z,12.23
2023-03-22T06:29:09.066Z,12.00
2023-03-22T06:31:35.902Z,12.05
2023-03-22T06:34:05.913Z,11.95
2023-03-22T06:36:36.359Z,12.56
2023-03-22T06:39:09.341Z,12.68
2023-03-22T06:41:43.014Z,12.66
2023-03-22T06:44:09.723Z,12.86
2023-03-22T06:46:36.369Z,12.91
2023-03-22T06:49:06.229Z,12.78
2023-03-22T06:51:36.617Z,12.92
2023-03-22T06:54:03.341Z,13.01
2023-03-22T06:56:30.130Z,13.04
2023-03-22T06:58:58.145Z,13.25
2023-03-22T07:01:25.609Z,12.84
2023-03-22T07:03:52.442Z,13.32
2023-03-22T07:06:19.263Z,12.02
2023-03-22T07:08:46.119Z,12.52
2023-03-22T07:11:20.660Z,12.77
2023-03-22T07:13:53.039Z,13.61
2023-03-22T07:16:22.068Z,13.64
2023-03-22T07:21:59.461Z,13.83
2023-03-22T07:24:26.296Z,13.89
2023-03-22T07:26:53.253Z,12.56
2023-03-22T07:29:19.918Z,13.31
2023-03-22T07:31:46.727Z,14.07
2023-03-22T07:34:13.457Z,14.04
2023-03-22T07:36:44.909Z,13.82
2023-03-22T07:39:12.810Z,14.16
2023-03-22T07:41:53.416Z,13.93
2023-03-22T07:44:21.327Z,14.02
2023-03-22T07:46:48.475Z,13.82
2023-03-22T07:49:18.549Z,14.50
2023-03-22T07:51:45.524Z,14.19
2023-03-22T07:56:55.967Z,14.68
2023-03-22T07:59:23.643Z,14.66
2023-03-22T08:01:50.277Z,14.84
2023-03-22T08:04:17.478Z,14.20
2023-03-22T08:06:46.943Z,15.05
2023-03-22T08:09:22.560Z,14.90
2023-03-22T08:11:52.741Z,15.14
2023-03-22T08:14:36.295Z,14.47
2023-03-22T08:17:06.919Z,15.03
2023-03-22T08:19:34.159Z,15.17
2023-03-22T08:22:01.271Z,15.26
2023-03-22T08:24:30.793Z,15.24
2023-03-22T08:27:04.492Z,15.29
2023-03-22T08:29:52.352Z,15.30
2023-03-22T08:32:19.920Z,14.72
2023-03-22T08:35:08.856Z,15.32
2023-03-22T08:37:35.530Z,15.36
2023-03-22T08:40:13.903Z,15.41
2023-03-22T08:42:40.507Z,14.37
2023-03-22T08:45:08.465Z,15.48
2023-03-22T08:47:39.934Z,15.41
2023-03-22T08:50:07.309Z,14.87
2023-03-22T08:52:37.285Z,14.31
2023-03-22T08:55:06.447Z,15.66
2023-03-22T08:57:41.504Z,15.71
2023-03-22T09:00:11.409Z,15.76
2023-03-22T09:02:37.957Z,14.46
2023-03-22T09:05:11.108Z,15.38
2023-03-22T09:07:40.676Z,15.45
2023-03-22T09:10:08.887Z,15.40
2023-03-22T09:12:36.046Z,15.45
2023-03-22T09:18:01.523Z,15.79
2023-03-22T09:20:52.047Z,16.36
2023-03-22T09:23:19.573Z,16.45
2023-03-22T09:25:49.285Z,16.45
2023-03-22T09:28:47.076Z,16.30
2023-03-22T09:31:19.091Z,16.95
2023-03-22T09:33:50.776Z,15.84
2023-03-22T09:36:20.694Z,17.07
2023-03-22T09:38:50.054Z,17.25
2023-03-22T09:42:01.092Z,17.47
2023-03-22T09:44:34.624Z,17.12
2023-03-22T09:47:05.525Z,17.03
2023-03-22T09:49:52.704Z,17.46
2023-03-22T09:52:20.458Z,17.59
2023-03-22T09:54:53.393Z,17.32
2023-03-22T09:57:23.046Z,18.15
2023-03-22T10:00:01.256Z,18.36
2023-03-22T10:02:40.235Z,18.03
2023-03-22T10:05:13.116Z,18.14
2023-03-22T10:07:55.103Z,18.68
2023-03-22T10:10:24.166Z,18.38
2023-03-22T10:13:27.491Z,19.01
2023-03-22T10:16:02.515Z,19.09
2023-03-22T10:21:32.967Z,19.08
2023-03-22T10:24:31.120Z,19.30
2023-03-22T10:26:57.802Z,19.66
2023-03-22T10:29:39.944Z,18.97
2023-03-22T10:32:54.950Z,19.93
2023-03-22T10:35:25.605Z,20.20
2023-03-22T10:37:59.786Z,20.20
2023-03-22T10:40:31.412Z,20.11
2023-03-22T10:43:45.017Z,20.18
2023-03-22T10:46:39.911Z,20.74
2023-03-22T10:49:32.414Z,20.88
2023-03-22T10:52:21.042Z,20.97
2023-03-22T10:54:53.509Z,20.91
2023-03-22T10:57:24.776Z,20.95
2023-03-22T11:00:00.661Z,20.90
2023-03-22T11:02:36.576Z,21.15
2023-03-22T11:05:05.824Z,21.47
2023-03-22T11:07:44.555Z,21.11
2023-03-22T11:10:29.213Z,21.21
2023-03-22T11:13:19.579Z,21.84
2023-03-22T11:16:05.006Z,22.51
2023-03-22T11:18:48.010Z,22.64
2023-03-22T11:21:17.468Z,22.78
2023-03-22T11:23:59.419Z,22.99
2023-03-22T11:26:40.764Z,22.65
2023-03-22T11:29:18.913Z,23.12
2023-03-22T11:31:59.122Z,23.10
2023-03-22T11:34:31.706Z,23.40
2023-03-22T11:37:14.425Z,22.76
2023-03-22T11:40:00.909Z,23.32
2023-03-22T11:42:27.611Z,23.49
2023-03-22T11:44:57.014Z,23.48
2023-03-22T11:47:37.023Z,23.43
2023-03-22T11:50:09.324Z,23.47
2023-03-22T11:52:40.059Z,22.25
2023-03-22T11:55:13.332Z,23.45
2023-03-22T11:57:50.482Z,23.36
2023-03-22T12:00:28.825Z,24.09
2023-03-22T12:03:19.123Z,23.21
2023-03-22T12:05:49.814Z,24.33
2023-03-22T12:08:22.862Z,23.99
2023-03-22T12:11:07.102Z,24.33
2023-03-22T12:14:04.465Z,23.19
2023-03-22T12:16:56.626Z,23.65
2023-03-22T12:19:51.867Z,23.60
2023-03-22T12:22:32.197Z,23.30
2023-03-22T12:25:04.948Z,22.92
2023-03-22T12:27:41.214Z,22.83
2023-03-22T12:30:25.544Z,22.87
2023-03-22T12:33:30.426Z,22.55
2023-03-22T12:36:01.874Z,22.57
2023-03-22T12:38:49.637Z,22.45
2023-03-22T12:41:52.750Z,22.40
2023-03-22T12:44:37.362Z,21.67
2023-03-22T12:47:30.283Z,22.06
2023-03-22T12:50:21.809Z,22.08
2023-03-22T12:53:03.490Z,22.07
2023-03-22T12:55:42.938Z,22.03
2023-03-22T12:58:20.043Z,21.79
2023-03-22T13:00:58.427Z,21.91
2023-03-22T13:03:42.800Z,21.75
2023-03-22T13:06:32.184Z,21.69
2023-03-22T13:09:35.440Z,21.57
2023-03-22T13:12:23.091Z,21.51
2023-03-22T13:14:55.661Z,21.63
2023-03-22T13:17:33.883Z,21.59
2023-03-22T13:20:27.151Z,21.19
2023-03-22T13:23:18.153Z,21.37
2023-03-22T13:26:06.084Z,21.47
2023-03-22T13:29:08.481Z,21.18
2023-03-22T13:31:43.681Z,21.23
2023-03-22T13:34:31.907Z,21.11
2023-03-22T13:37:01.715Z,21.18
2023-03-22T13:39:34.784Z,21.25
2023-03-22T13:42:38.853Z,21.13
2023-03-22T13:45:31.673Z,21.07
2023-03-22T13:48:42.491Z,20.94
2023-03-22T13:51:35.220Z,20.86
2023-03-22T13:54:24.264Z,21.08
2023-03-22T13:57:03.249Z,20.60
2023-03-22T14:00:11.278Z,21.03
2023-03-22T14:02:42.859Z,20.63
2023-03-22T14:05:23.825Z,21.03
2023-03-22T14:08:00.276Z,20.89
2023-03-22T14:10:48.779Z,20.84
2023-03-22T14:13:42.106Z,20.60
2023-03-22T14:16:23.129Z,20.89
2023-03-22T14:18:57.562Z,20.65
2023-03-22T14:21:31.536Z,21.02
